sensor_id;sensor_type;location;lat;lon;timestamp;temperature;humidity
19033;DHT22;9649;51.042;13.804;2024-01-15T00:00:36;3.10;1.00
19033;DHT22;9649;51.042;13.804;2024-01-15T00:06:00;3.10;1.00
19033;DHT22;9649;51.042;13.804;2024-01-15T00:11:16;3.10;1.00
19033;DHT22;9649;51.042;13.804;2024-01-15T00:17:02;3.10;1.00
19033;DHT22;9649;51.042;13.804;2024-01-15T00:22:35;3.10;1.00
19033;DHT22;9649;51.042;13.804;2024-01-15T00:28:50;3.00;1.00
19033;DHT22;9649;51.042;13.804;2024-01-15T00:34:01;3.00;1.00
19033;DHT22;9649;51.042;13.804;2024-01-15T00:39:21;3.00;99.90
19033;DHT22;9649;51.042;13.804;2024-01-15T01:02:34;2.90;99.90
19033;DHT22;9649;51.042;13.804;2024-01-15T01:08:05;2.90;1.00
19033;DHT22;9649;51.042;13.804;2024-01-15T01:13:14;2.90;1.00
19033;DHT22;9649;51.042;13.804;2024-01-15T01:18:41;2.80;1.00
19033;DHT22;9649;51.042;13.804;2024-01-15T01:23:50;2.80;1.00
19033;DHT22;9649;51.042;13.804;2024-01-15T01:29:00;2.70;1.00
19033;DHT22;9649;51.042;13.804;2024-01-15T01:34:17;2.80;1.00
19033;DHT22;9649;51.042;13.804;2024-01-15T01:39:27;2.80;1.00
19033;DHT22;9649;51.042;13.804;2024-01-15T01:44:39;2.80;1.00
19033;DHT22;9649;51.042;13.804;2024-01-15T01:49:51;2.60;1.00
19033;DHT22;9649;51.042;13.804;2024-01-15T01:55:32;2.60;1.00
19033;DHT22;9649;51.042;13.804;2024-01-15T02:01:01;2.60;1.00
19033;DHT22;9649;51.042;13.804;2024-01-15T02:06:30;2.70;1.00
19033;DHT22;9649;51.042;13.804;2024-01-15T02:11:48;2.70;1.00
19033;DHT22;9649;51.042;13.804;2024-01-15T02:17:08;2.70;1.00
19033;DHT22;9649;51.042;13.804;2024-01-15T02:22:26;2.80;1.00
19033;DHT22;9649;51.042;13.804;2024-01-15T02:27:44;2.80;1.00
19033;DHT22;9649;51.042;13.804;2024-01-15T02:33:21;2.70;1.00
19033;DHT22;9649;51.042;13.804;2024-01-15T02:38:49;2.60;1.00
19033;DHT22;9649;51.042;13.804;2024-01-15T02:44:09;2.60;1.00
19033;DHT22;9649;51.042;13.804;2024-01-15T02:49:42;2.60;99.90
19033;DHT22;9649;51.042;13.804;2024-01-15T02:54:57;2.50;1.00
19033;DHT22;9649;51.042;13.804;2024-01-15T03:00:22;2.60;1.00
19033;DHT22;9649;51.042;13.804;2024-01-15T03:05:40;2.50;1.00
19033;DHT22;9649;51.042;13.804;2024-01-15T03:11:01;2.50;1.00
19033;DHT22;9649;51.042;13.804;2024-01-15T03:22:04;2.40;1.00
19033;DHT22;9649;51.042;13.804;2024-01-15T03:27:14;2.40;1.00
19033;DHT22;9649;51.042;13.804;2024-01-15T03:32:21;2.30;1.00
19033;DHT22;9649;51.042;13.804;2024-01-15T03:37:25;2.30;1.00
19033;DHT22;9649;51.042;13.804;2024-01-15T03:42:45;2.30;1.00
19033;DHT22;9649;51.042;13.804;2024-01-15T03:48:19;2.30;1.00
19033;DHT22;9649;51.042;13.804;2024-01-15T03:53:30;2.30;1.00
19033;DHT22;9649;51.042;13.804;2024-01-15T03:58:39;2.30;1.00
19033;DHT22;9649;51.042;13.804;2024-01-15T04:04:03;2.20;1.00
19033;DHT22;9649;51.042;13.804;2024-01-15T04:09:18;2.20;1.00
19033;DHT22;9649;51.042;13.804;2024-01-15T04:14:26;2.10;1.00
19033;DHT22;9649;51.042;13.804;2024-01-15T04:19:38;2.00;99.90
19033;DHT22;9649;51.042;13.804;2024-01-15T04:24:50;1.90;1.00
19033;DHT22;9649;51.042;13.804;2024-01-15T04:29:57;1.90;1.00
19033;DHT22;9649;51.042;13.804;2024-01-15T04:35:25;1.80;41.30
19033;DHT22;9649;51.042;13.804;2024-01-15T04:40:31;1.80;1.00
19033;DHT22;9649;51.042;13.804;2024-01-15T04:45:37;1.90;1.00
19033;DHT22;9649;51.042;13.804;2024-01-15T04:50:49;1.90;1.00
19033;DHT22;9649;51.042;13.804;2024-01-15T04:55:57;1.90;1.00
19033;DHT22;9649;51.042;13.804;2024-01-15T05:01:11;1.70;1.00
19033;DHT22;9649;51.042;13.804;2024-01-15T05:06:18;1.60;1.00
19033;DHT22;9649;51.042;13.804;2024-01-15T05:11:33;1.30;1.00
19033;DHT22;9649;51.042;13.804;2024-01-15T05:16:49;1.20;1.00
19033;DHT22;9649;51.042;13.804;2024-01-15T05:22:17;1.30;1.00
19033;DHT22;9649;51.042;13.804;2024-01-15T05:27:29;1.30;99.90
19033;DHT22;9649;51.042;13.804;2024-01-15T05:32:47;1.10;99.90
19033;DHT22;9649;51.042;13.804;2024-01-15T05:44:30;1.30;1.00
19033;DHT22;9649;51.042;13.804;2024-01-15T05:49:33;1.20;1.00
19033;DHT22;9649;51.042;13.804;2024-01-15T05:54:42;1.20;99.90
19033;DHT22;9649;51.042;13.804;2024-01-15T06:00:26;1.20;99.90
19033;DHT22;9649;51.042;13.804;2024-01-15T06:05:52;1.40;1.00
19033;DHT22;9649;51.042;13.804;2024-01-15T06:11:06;1.30;1.00
19033;DHT22;9649;51.042;13.804;2024-01-15T06:16:14;1.40;1.00
19033;DHT22;9649;51.042;13.804;2024-01-15T06:21:18;1.50;1.00
19033;DHT22;9649;51.042;13.804;2024-01-15T06:26:20;1.60;99.90
19033;DHT22;9649;51.042;13.804;2024-01-15T06:31:26;1.70;99.90
19033;DHT22;9649;51.042;13.804;2024-01-15T06:36:28;1.70;99.90
19033;DHT22;9649;51.042;13.804;2024-01-15T06:41:31;1.70;99.90
19033;DHT22;9649;51.042;13.804;2024-01-15T06:46:35;1.60;99.90
19033;DHT22;9649;51.042;13.804;2024-01-15T06:51:38;1.70;99.90
19033;DHT22;9649;51.042;13.804;2024-01-15T06:56:41;1.80;93.70
19033;DHT22;9649;51.042;13.804;2024-01-15T07:01:45;1.80;72.50
19033;DHT22;9649;51.042;13.804;2024-01-15T07:06:48;1.80;51.10
19033;DHT22;9649;51.042;13.804;2024-01-15T07:11:51;1.80;41.10
19033;DHT22;9649;51.042;13.804;2024-01-15T07:16:55;1.70;78.60
19033;DHT22;9649;51.042;13.804;2024-01-15T07:21:58;1.60;35.70
19033;DHT22;9649;51.042;13.804;2024-01-15T07:27:02;1.80;56.60
19033;DHT22;9649;51.042;13.804;2024-01-15T07:32:07;1.90;1.00
19033;DHT22;9649;51.042;13.804;2024-01-15T07:37:10;1.90;1.00
19033;DHT22;9649;51.042;13.804;2024-01-15T07:42:13;1.90;95.20
19033;DHT22;9649;51.042;13.804;2024-01-15T07:47:18;1.80;99.90
19033;DHT22;9649;51.042;13.804;2024-01-15T07:52:21;1.90;1.00
19033;DHT22;9649;51.042;13.804;2024-01-15T07:57:24;1.80;1.00
19033;DHT22;9649;51.042;13.804;2024-01-15T08:02:28;1.90;1.00
19033;DHT22;9649;51.042;13.804;2024-01-15T08:07:34;1.80;1.00
19033;DHT22;9649;51.042;13.804;2024-01-15T08:12:37;2.00;1.00
19033;DHT22;9649;51.042;13.804;2024-01-15T08:17:41;2.10;1.00
19033;DHT22;9649;51.042;13.804;2024-01-15T08:22:44;2.20;1.00
19033;DHT22;9649;51.042;13.804;2024-01-15T08:27:48;2.40;1.00
19033;DHT22;9649;51.042;13.804;2024-01-15T08:32:52;2.30;1.00
19033;DHT22;9649;51.042;13.804;2024-01-15T08:37:56;2.30;1.00
19033;DHT22;9649;51.042;13.804;2024-01-15T08:43:00;2.70;1.00
19033;DHT22;9649;51.042;13.804;2024-01-15T08:48:05;3.20;1.00
19033;DHT22;9649;51.042;13.804;2024-01-15T08:53:08;3.70;1.00
19033;DHT22;9649;51.042;13.804;2024-01-15T08:58:10;3.80;1.00
19033;DHT22;9649;51.042;13.804;2024-01-15T09:03:15;3.90;1.00
19033;DHT22;9649;51.042;13.804;2024-01-15T09:08:18;4.30;1.00
19033;DHT22;9649;51.042;13.804;2024-01-15T09:13:20;3.50;1.00
19033;DHT22;9649;51.042;13.804;2024-01-15T09:18:24;3.40;1.00
19033;DHT22;9649;51.042;13.804;2024-01-15T09:23:27;3.70;1.00
19033;DHT22;9649;51.042;13.804;2024-01-15T09:28:30;8.00;99.90
19033;DHT22;9649;51.042;13.804;2024-01-15T09:33:34;5.90;99.90
19033;DHT22;9649;51.042;13.804;2024-01-15T09:38:37;6.70;99.90
19033;DHT22;9649;51.042;13.804;2024-01-15T09:43:40;5.90;99.90
19033;DHT22;9649;51.042;13.804;2024-01-15T09:48:45;7.50;99.90
19033;DHT22;9649;51.042;13.804;2024-01-15T09:53:48;7.90;99.90
19033;DHT22;9649;51.042;13.804;2024-01-15T09:58:52;5.50;99.90
19033;DHT22;9649;51.042;13.804;2024-01-15T10:03:56;4.70;99.90
19033;DHT22;9649;51.042;13.804;2024-01-15T10:09:00;4.60;99.90
19033;DHT22;9649;51.042;13.804;2024-01-15T10:14:05;4.40;99.90
19033;DHT22;9649;51.042;13.804;2024-01-15T10:19:09;4.10;1.00
19033;DHT22;9649;51.042;13.804;2024-01-15T10:24:12;7.30;99.90
19033;DHT22;9649;51.042;13.804;2024-01-15T10:29:15;6.60;99.90
19033;DHT22;9649;51.042;13.804;2024-01-15T10:34:19;11.10;99.90
19033;DHT22;9649;51.042;13.804;2024-01-15T10:39:22;11.80;99.90
19033;DHT22;9649;51.042;13.804;2024-01-15T10:44:25;9.50;99.90
19033;DHT22;9649;51.042;13.804;2024-01-15T10:49:29;9.50;99.90
19033;DHT22;9649;51.042;13.804;2024-01-15T10:54:36;8.70;99.90
19033;DHT22;9649;51.042;13.804;2024-01-15T10:59:39;7.50;99.90
19033;DHT22;9649;51.042;13.804;2024-01-15T11:04:44;6.90;99.90
19033;DHT22;9649;51.042;13.804;2024-01-15T11:09:46;6.20;99.90
19033;DHT22;9649;51.042;13.804;2024-01-15T11:14:50;5.90;99.90
19033;DHT22;9649;51.042;13.804;2024-01-15T11:19:58;5.40;99.90
19033;DHT22;9649;51.042;13.804;2024-01-15T11:25:02;5.70;99.90
19033;DHT22;9649;51.042;13.804;2024-01-15T11:30:08;5.80;99.90
19033;DHT22;9649;51.042;13.804;2024-01-15T11:35:14;5.20;99.90
19033;DHT22;9649;51.042;13.804;2024-01-15T11:40:39;4.70;99.90
19033;DHT22;9649;51.042;13.804;2024-01-15T11:45:44;4.80;99.90
19033;DHT22;9649;51.042;13.804;2024-01-15T11:50:50;4.80;99.90
19033;DHT22;9649;51.042;13.804;2024-01-15T11:55:58;6.30;99.90
19033;DHT22;9649;51.042;13.804;2024-01-15T12:01:01;7.40;99.90
19033;DHT22;9649;51.042;13.804;2024-01-15T12:06:05;7.30;99.90
19033;DHT22;9649;51.042;13.804;2024-01-15T12:11:13;7.20;99.90
19033;DHT22;9649;51.042;13.804;2024-01-15T12:16:17;6.80;99.90
19033;DHT22;9649;51.042;13.804;2024-01-15T12:21:20;6.00;99.90
19033;DHT22;9649;51.042;13.804;2024-01-15T12:26:24;5.40;99.90
19033;DHT22;9649;51.042;13.804;2024-01-15T12:31:27;5.00;99.90
19033;DHT22;9649;51.042;13.804;2024-01-15T12:36:30;4.60;99.90
19033;DHT22;9649;51.042;13.804;2024-01-15T12:41:34;4.90;99.90
19033;DHT22;9649;51.042;13.804;2024-01-15T12:46:37;4.90;99.90
19033;DHT22;9649;51.042;13.804;2024-01-15T12:51:40;5.30;99.90
19033;DHT22;9649;51.042;13.804;2024-01-15T12:56:44;5.00;99.90
19033;DHT22;9649;51.042;13.804;2024-01-15T13:01:47;4.40;1.00
19033;DHT22;9649;51.042;13.804;2024-01-15T13:06:50;4.20;1.00
19033;DHT22;9649;51.042;13.804;2024-01-15T13:11:54;4.40;1.00
19033;DHT22;9649;51.042;13.804;2024-01-15T13:16:58;4.60;1.00
19033;DHT22;9649;51.042;13.804;2024-01-15T13:22:01;4.40;1.00
19033;DHT22;9649;51.042;13.804;2024-01-15T13:27:06;4.30;1.00
19033;DHT22;9649;51.042;13.804;2024-01-15T13:32:11;4.10;1.00
19033;DHT22;9649;51.042;13.804;2024-01-15T13:37:19;4.60;1.00
19033;DHT22;9649;51.042;13.804;2024-01-15T13:42:23;5.10;1.00
19033;DHT22;9649;51.042;13.804;2024-01-15T13:47:27;4.80;1.00
19033;DHT22;9649;51.042;13.804;2024-01-15T13:52:30;4.30;1.00
19033;DHT22;9649;51.042;13.804;2024-01-15T13:57:34;3.70;99.90
19033;DHT22;9649;51.042;13.804;2024-01-15T14:02:37;3.50;1.00
19033;DHT22;9649;51.042;13.804;2024-01-15T14:07:40;3.30;1.00
19033;DHT22;9649;51.042;13.804;2024-01-15T14:12:44;2.80;99.90
19033;DHT22;9649;51.042;13.804;2024-01-15T14:17:47;2.90;1.00
19033;DHT22;9649;51.042;13.804;2024-01-15T14:22:50;2.70;99.90
19033;DHT22;9649;51.042;13.804;2024-01-15T14:27:54;2.50;1.00
19033;DHT22;9649;51.042;13.804;2024-01-15T14:32:57;2.60;1.00
19033;DHT22;9649;51.042;13.804;2024-01-15T14:37:59;2.60;1.00
19033;DHT22;9649;51.042;13.804;2024-01-15T14:43:04;2.50;99.90
19033;DHT22;9649;51.042;13.804;2024-01-15T14:48:07;2.30;1.00
19033;DHT22;9649;51.042;13.804;2024-01-15T14:53:10;2.20;1.00
19033;DHT22;9649;51.042;13.804;2024-01-15T14:58:14;2.00;99.90
19033;DHT22;9649;51.042;13.804;2024-01-15T15:03:17;1.90;99.90
19033;DHT22;9649;51.042;13.804;2024-01-15T15:08:20;1.80;1.00
19033;DHT22;9649;51.042;13.804;2024-01-15T15:13:25;1.70;1.00
19033;DHT22;9649;51.042;13.804;2024-01-15T15:18:45;1.60;1.00
19033;DHT22;9649;51.042;13.804;2024-01-15T15:23:49;1.40;99.90
19033;DHT22;9649;51.042;13.804;2024-01-15T15:28:55;1.40;99.90
19033;DHT22;9649;51.042;13.804;2024-01-15T15:33:58;1.40;99.90
19033;DHT22;9649;51.042;13.804;2024-01-15T15:39:01;1.50;99.90
19033;DHT22;9649;51.042;13.804;2024-01-15T15:44:05;1.40;99.90
19033;DHT22;9649;51.042;13.804;2024-01-15T15:49:08;1.60;99.90
19033;DHT22;9649;51.042;13.804;2024-01-15T15:54:10;1.50;99.90
19033;DHT22;9649;51.042;13.804;2024-01-15T15:59:15;1.60;1.20
19033;DHT22;9649;51.042;13.804;2024-01-15T16:04:20;1.60;6.10
19033;DHT22;9649;51.042;13.804;2024-01-15T16:09:23;1.60;1.00
19033;DHT22;9649;51.042;13.804;2024-01-15T16:14:27;1.70;1.00
19033;DHT22;9649;51.042;13.804;2024-01-15T16:19:30;1.70;1.00
19033;DHT22;9649;51.042;13.804;2024-01-15T16:24:52;1.80;1.00
19033;DHT22;9649;51.042;13.804;2024-01-15T16:30:00;1.80;1.00
19033;DHT22;9649;51.042;13.804;2024-01-15T16:35:06;1.80;99.90
19033;DHT22;9649;51.042;13.804;2024-01-15T16:40:10;1.70;1.00
19033;DHT22;9649;51.042;13.804;2024-01-15T16:45:14;1.70;1.00
19033;DHT22;9649;51.042;13.804;2024-01-15T16:50:17;1.70;1.00
19033;DHT22;9649;51.042;13.804;2024-01-15T16:55:20;1.80;1.00
19033;DHT22;9649;51.042;13.804;2024-01-15T17:00:24;1.80;92.20
19033;DHT22;9649;51.042;13.804;2024-01-15T17:05:28;1.80;99.90
19033;DHT22;9649;51.042;13.804;2024-01-15T17:10:31;1.80;1.00
19033;DHT22;9649;51.042;13.804;2024-01-15T17:15:36;1.60;1.00
19033;DHT22;9649;51.042;13.804;2024-01-15T17:20:39;1.40;1.00
19033;DHT22;9649;51.042;13.804;2024-01-15T17:25:46;1.40;1.00
19033;DHT22;9649;51.042;13.804;2024-01-15T17:30:50;1.50;98.30
19033;DHT22;9649;51.042;13.804;2024-01-15T17:35:53;1.50;1.00
19033;DHT22;9649;51.042;13.804;2024-01-15T17:40:58;1.50;1.00
19033;DHT22;9649;51.042;13.804;2024-01-15T17:46:02;1.60;99.90
19033;DHT22;9649;51.042;13.804;2024-01-15T17:51:05;1.60;1.00
19033;DHT22;9649;51.042;13.804;2024-01-15T17:56:08;1.50;99.90
19033;DHT22;9649;51.042;13.804;2024-01-15T18:01:13;1.50;1.00
19033;DHT22;9649;51.042;13.804;2024-01-15T18:06:16;1.60;99.90
19033;DHT22;9649;51.042;13.804;2024-01-15T18:11:19;1.70;99.90
19033;DHT22;9649;51.042;13.804;2024-01-15T18:16:23;1.60;1.00
19033;DHT22;9649;51.042;13.804;2024-01-15T18:21:26;1.70;1.00
19033;DHT22;9649;51.042;13.804;2024-01-15T18:26:29;1.50;99.90
19033;DHT22;9649;51.042;13.804;2024-01-15T18:31:33;1.50;99.90
19033;DHT22;9649;51.042;13.804;2024-01-15T18:36:35;1.50;1.00
19033;DHT22;9649;51.042;13.804;2024-01-15T18:41:38;1.50;99.90
19033;DHT22;9649;51.042;13.804;2024-01-15T18:46:42;1.60;1.00
19033;DHT22;9649;51.042;13.804;2024-01-15T18:51:47;1.60;1.00
19033;DHT22;9649;51.042;13.804;2024-01-15T18:56:55;1.80;1.00
19033;DHT22;9649;51.042;13.804;2024-01-15T19:01:59;1.80;99.90
19033;DHT22;9649;51.042;13.804;2024-01-15T19:07:30;1.80;1.00
19033;DHT22;9649;51.042;13.804;2024-01-15T19:12:53;1.70;4.10
19033;DHT22;9649;51.042;13.804;2024-01-15T19:17:58;1.40;99.90
19033;DHT22;9649;51.042;13.804;2024-01-15T19:23:00;1.40;99.90
19033;DHT22;9649;51.042;13.804;2024-01-15T19:28:04;1.40;99.90
19033;DHT22;9649;51.042;13.804;2024-01-15T19:33:09;1.40;99.90
19033;DHT22;9649;51.042;13.804;2024-01-15T19:38:12;1.50;99.90
19033;DHT22;9649;51.042;13.804;2024-01-15T19:43:23;1.50;99.90
19033;DHT22;9649;51.042;13.804;2024-01-15T19:48:32;1.50;99.90
19033;DHT22;9649;51.042;13.804;2024-01-15T19:53:35;1.30;99.90
19033;DHT22;9649;51.042;13.804;2024-01-15T19:58:39;1.40;99.90
19033;DHT22;9649;51.042;13.804;2024-01-15T20:03:46;1.30;99.90
19033;DHT22;9649;51.042;13.804;2024-01-15T20:08:59;1.30;99.90
19033;DHT22;9649;51.042;13.804;2024-01-15T20:14:41;1.30;99.90
19033;DHT22;9649;51.042;13.804;2024-01-15T20:20:10;1.30;99.90
19033;DHT22;9649;51.042;13.804;2024-01-15T20:25:40;1.30;99.90
19033;DHT22;9649;51.042;13.804;2024-01-15T20:30:48;1.30;99.90
19033;DHT22;9649;51.042;13.804;2024-01-15T20:36:25;1.20;99.90
19033;DHT22;9649;51.042;13.804;2024-01-15T20:41:46;1.30;99.90
19033;DHT22;9649;51.042;13.804;2024-01-15T20:46:49;1.50;1.00
19033;DHT22;9649;51.042;13.804;2024-01-15T20:51:53;1.60;1.00
19033;DHT22;9649;51.042;13.804;2024-01-15T20:56:56;1.60;1.00
19033;DHT22;9649;51.042;13.804;2024-01-15T21:02:02;1.50;1.00
19033;DHT22;9649;51.042;13.804;2024-01-15T21:07:07;1.50;1.00
19033;DHT22;9649;51.042;13.804;2024-01-15T21:12:10;1.60;1.00
19033;DHT22;9649;51.042;13.804;2024-01-15T21:17:12;1.50;40.90
19033;DHT22;9649;51.042;13.804;2024-01-15T21:22:16;1.50;99.90
19033;DHT22;9649;51.042;13.804;2024-01-15T21:27:20;1.40;99.90
19033;DHT22;9649;51.042;13.804;2024-01-15T21:32:28;1.30;99.90
19033;DHT22;9649;51.042;13.804;2024-01-15T21:43:11;1.40;99.90
19033;DHT22;9649;51.042;13.804;2024-01-15T21:48:16;1.40;99.90
19033;DHT22;9649;51.042;13.804;2024-01-15T21:53:20;1.60;99.90
19033;DHT22;9649;51.042;13.804;2024-01-15T21:58:32;1.70;99.90
19033;DHT22;9649;51.042;13.804;2024-01-15T22:03:48;1.70;99.90
19033;DHT22;9649;51.042;13.804;2024-01-15T22:08:54;1.70;99.90
19033;DHT22;9649;51.042;13.804;2024-01-15T22:13:59;1.70;1.00
19033;DHT22;9649;51.042;13.804;2024-01-15T22:19:02;1.50;15.30
19033;DHT22;9649;51.042;13.804;2024-01-15T22:24:07;1.60;37.70
19033;DHT22;9649;51.042;13.804;2024-01-15T22:29:09;1.80;71.80
19033;DHT22;9649;51.042;13.804;2024-01-15T22:34:12;1.80;99.90
19033;DHT22;9649;51.042;13.804;2024-01-15T22:39:20;1.60;99.90
19033;DHT22;9649;51.042;13.804;2024-01-15T22:44:23;1.40;99.90
19033;DHT22;9649;51.042;13.804;2024-01-15T22:49:27;1.10;99.90
19033;DHT22;9649;51.042;13.804;2024-01-15T22:54:32;1.00;99.90
19033;DHT22;9649;51.042;13.804;2024-01-15T22:59:36;1.00;99.90
19033;DHT22;9649;51.042;13.804;2024-01-15T23:04:39;1.00;99.90
19033;DHT22;9649;51.042;13.804;2024-01-15T23:09:45;1.00;99.90
19033;DHT22;9649;51.042;13.804;2024-01-15T23:14:49;1.10;99.90
19033;DHT22;9649;51.042;13.804;2024-01-15T23:19:52;1.10;99.90
19033;DHT22;9649;51.042;13.804;2024-01-15T23:24:57;1.10;99.90
19033;DHT22;9649;51.042;13.804;2024-01-15T23:30:01;1.10;99.90
19033;DHT22;9649;51.042;13.804;2024-01-15T23:35:06;1.10;99.90
19033;DHT22;9649;51.042;13.804;2024-01-15T23:40:11;1.10;99.90
19033;DHT22;9649;51.042;13.804;2024-01-15T23:45:13;1.10;99.90
19033;DHT22;9649;51.042;13.804;2024-01-15T23:50:16;1.10;99.90
19033;DHT22;9649;51.042;13.804;2024-01-15T23:55:20;1.00;99.90
